Aurelia, IA

9:03 PM CST on February 05, 2016 (GMT -0600)
APRSWXNET | | Change Station
CLOSE
Current Station
Personal Weather Station
Location: Cherokee, IA
Elevation: 1312 ft
Nearby Weather Stations

Elev 1312 ft 42.76 °N, 95.52 °W | Updated 30 minutes ago

Overcast
Overcast
28 °F
Feels Like 28 °F
N
2
Wind Variable Wind from WSW
Gusts 0.0 mph

Today
High -- | Low -- °F
--% Chance of Precip.
Yesterday
High -- | Low -- °F
Precip. -- in
Pressure 30.21 in
Visibility 5.0 miles
Clouds Scattered Clouds 700 ft
Mostly Cloudy 2200 ft
Overcast 6000 ft
Windchill 28 °F
Dew Point 26 °F
Humidity 93%
Rainfall in
Snow Depth Not available.
7:32 AM 5:39 PM
Waning Crescent, 8% visible
METAR KCKP 060235Z AUTO 21005KT 5SM -SN SCT007 BKN022 OVC060 M02/M03 A3021 RMK AO2 T10251027
Pressure 30.21 in
Visibility 5.0 miles
Clouds Scattered Clouds 700 ft
Mostly Cloudy 2200 ft
Overcast 6000 ft
Windchill 28 °F
Dew Point 26 °F
Humidity 93%
Rainfall in
Snow Depth Not available.
7:32 AM 5:39 PM
Waning Crescent, 8% visible
METAR KCKP 060235Z AUTO 21005KT 5SM -SN SCT007 BKN022 OVC060 M02/M03 A3021 RMK AO2 T10251027

10-Day Weather Forecast

Almanac

Astronomy

Feb. 05, 2016 Rise Set
Actual Time
Civil Twilight
Nautical Twilight
Astronomical Twilight
Moon
Length of Visible Light
Length of Day
Tomorrow will be .
, % of the Moon is Illuminated

Today's Extremes

State Highs State Lows

Community

WunderPhotos

Upload Photos

1,890,915 photos uploaded!

WunderBlog® & News

Nearby

Air Quality

  Air Quality AQ Index Pollutant
Not available.

Snow Depth

Station Depth Elevation

Earthquake Activity

City Distance Mag. Time & Date
Minimum magnitude displayed is 2.5.

Coastal Water Temperatures

Place Temperature

Stations

Nearby Weather Stations

Station Location Temp. Windchill Dew Point Humidity Wind Precip. Elev Updated Type
                   

Watches & Warnings

There are currently no watches in effect.